createdAt,value
2024-03-02T00:00:12.645Z,53.00
2024-03-02T00:01:12.764Z,51.94
2024-03-02T00:02:12.690Z,52.38
2024-03-02T00:03:12.755Z,50.54
2024-03-02T00:04:12.795Z,52.95
2024-03-02T00:05:12.843Z,52.24
2024-03-02T00:06:12.917Z,51.75
2024-03-02T00:07:12.938Z,52.73
2024-03-02T00:08:12.990Z,51.93
2024-03-02T00:09:13.028Z,52.06
2024-03-02T00:10:13.004Z,52.20
2024-03-02T00:11:13.013Z,52.62
2024-03-02T00:12:13.116Z,52.72
2024-03-02T00:13:13.017Z,52.37
2024-03-02T00:14:13.019Z,52.72
2024-03-02T00:15:13.125Z,51.95
2024-03-02T00:16:13.032Z,51.60
2024-03-02T00:17:13.033Z,52.34
2024-03-02T00:18:13.118Z,50.25
2024-03-02T00:19:13.013Z,53.03
2024-03-02T00:20:13.027Z,51.25
2024-03-02T00:21:13.055Z,52.85
2024-03-02T00:22:13.024Z,53.32
2024-03-02T00:23:13.040Z,51.13
2024-03-02T00:24:13.140Z,50.83
2024-03-02T00:25:13.241Z,50.84
2024-03-02T00:26:13.092Z,51.15
2024-03-02T00:27:13.159Z,51.45
2024-03-02T00:28:13.079Z,51.74
2024-03-02T00:29:13.079Z,51.61
2024-03-02T00:30:13.144Z,51.89
2024-03-02T00:31:13.102Z,51.51
2024-03-02T00:32:13.101Z,51.44
2024-03-02T00:33:13.204Z,51.79
2024-03-02T00:34:13.155Z,51.04
2024-03-02T00:35:13.114Z,50.95
2024-03-02T00:36:13.133Z,51.00
2024-03-02T00:37:13.144Z,50.04
2024-03-02T00:38:13.142Z,51.65
2024-03-02T00:39:13.372Z,50.97
2024-03-02T00:40:13.249Z,52.13
2024-03-02T00:41:13.282Z,52.07
2024-03-02T00:42:13.398Z,51.79
2024-03-02T00:43:13.379Z,50.62
2024-03-02T00:44:13.460Z,52.35
2024-03-02T00:45:13.502Z,51.29
2024-03-02T00:46:13.540Z,52.24
2024-03-02T00:47:13.593Z,51.56
2024-03-02T00:48:13.678Z,52.67
2024-03-02T00:49:13.720Z,51.64
2024-03-02T00:50:20.630Z,52.88
2024-03-02T00:51:14.790Z,52.89
2024-03-02T00:52:13.737Z,52.91
2024-03-02T00:53:13.751Z,52.38
2024-03-02T00:54:13.766Z,52.20
2024-03-02T00:55:13.758Z,53.41
2024-03-02T00:56:13.759Z,50.00
2024-03-02T00:57:13.885Z,53.75
2024-03-02T00:58:13.777Z,51.62
2024-03-02T00:59:13.770Z,51.88
2024-03-02T01:00:13.795Z,51.60
2024-03-02T01:01:13.813Z,52.38
2024-03-02T01:02:13.760Z,52.61
2024-03-02T01:03:13.826Z,52.32
2024-03-02T01:04:13.821Z,52.06
2024-03-02T01:05:13.874Z,53.04
2024-03-02T01:06:13.955Z,52.04
2024-03-02T01:07:13.960Z,52.11
2024-03-02T01:08:14.009Z,52.54
2024-03-02T01:09:14.159Z,53.03
2024-03-02T01:10:14.127Z,52.13
2024-03-02T01:11:14.204Z,50.31
2024-03-02T01:12:14.237Z,53.05
2024-03-02T01:13:14.279Z,53.91
2024-03-02T01:14:14.313Z,52.54
2024-03-02T01:15:14.426Z,54.38
2024-03-02T01:16:14.435Z,51.93
2024-03-02T01:17:14.488Z,52.92
2024-03-02T01:18:14.558Z,52.74
2024-03-02T01:19:14.624Z,53.23
2024-03-02T01:20:14.654Z,52.52
2024-03-02T01:21:14.686Z,52.75
2024-03-02T01:22:14.704Z,53.08
2024-03-02T01:23:14.766Z,53.03
2024-03-02T01:24:14.836Z,53.10
2024-03-02T01:25:14.870Z,52.55
2024-03-02T01:26:14.917Z,53.74
2024-03-02T01:27:15.046Z,52.68
2024-03-02T01:28:15.066Z,52.62
2024-03-02T01:29:15.087Z,54.13
2024-03-02T01:30:15.172Z,53.15
2024-03-02T01:31:15.186Z,53.83
2024-03-02T01:32:15.236Z,52.55
2024-03-02T01:33:15.319Z,53.01
2024-03-02T01:34:15.344Z,52.52
2024-03-02T01:35:15.379Z,53.03
2024-03-02T01:36:15.482Z,55.43
2024-03-02T01:37:15.503Z,53.48
2024-03-02T01:38:15.530Z,52.02
2024-03-02T01:39:15.596Z,53.17
2024-03-02T01:40:15.644Z,53.64
2024-03-02T01:41:15.680Z,53.53
2024-03-02T01:42:15.746Z,52.64
2024-03-02T01:43:15.770Z,52.24
2024-03-02T01:44:15.827Z,53.36
2024-03-02T01:45:15.926Z,53.02
2024-03-02T01:46:15.960Z,53.57
2024-03-02T01:47:15.937Z,52.39
2024-03-02T01:48:16.022Z,53.60
2024-03-02T01:49:15.959Z,53.51
2024-03-02T01:50:15.936Z,54.12
2024-03-02T01:51:15.967Z,54.04
2024-03-02T01:52:15.932Z,52.64
2024-03-02T01:53:15.934Z,54.26
2024-03-02T01:54:15.962Z,55.03
2024-03-02T01:55:15.944Z,55.20
2024-03-02T01:56:15.939Z,53.51
2024-03-02T01:57:15.990Z,52.73
2024-03-02T01:58:15.955Z,53.88
2024-03-02T01:59:15.966Z,52.46
2024-03-02T02:00:16.091Z,53.23
2024-03-02T02:01:16.150Z,52.43
2024-03-02T02:02:16.139Z,54.16
2024-03-02T02:03:16.223Z,51.45
2024-03-02T02:04:16.230Z,53.23
2024-03-02T02:05:16.301Z,52.21
2024-03-02T02:06:16.413Z,54.65
2024-03-02T02:07:16.400Z,52.69
2024-03-02T02:08:16.452Z,52.08
2024-03-02T02:09:16.553Z,53.20
2024-03-02T02:10:16.577Z,52.68
2024-03-02T02:11:16.641Z,53.83
2024-03-02T02:12:16.730Z,53.98
2024-03-02T02:13:16.717Z,51.48
2024-03-02T02:14:16.788Z,52.38
2024-03-02T02:15:16.848Z,51.89
2024-03-02T02:16:16.891Z,53.16
2024-03-02T02:17:16.940Z,53.63
2024-03-02T02:18:17.099Z,53.81
2024-03-02T02:19:17.073Z,53.57
2024-03-02T02:20:17.118Z,50.96
2024-03-02T02:21:17.267Z,53.98
2024-03-02T02:22:17.254Z,54.51
2024-03-02T02:23:17.312Z,53.45
2024-03-02T02:24:17.367Z,53.46
2024-03-02T02:25:17.304Z,53.58
2024-03-02T02:26:17.274Z,53.63
2024-03-02T02:27:17.307Z,52.56
2024-03-02T02:28:17.252Z,53.53
2024-03-02T02:29:17.263Z,52.63
2024-03-02T02:30:17.269Z,53.49
2024-03-02T02:31:17.256Z,53.61
2024-03-02T02:32:17.238Z,53.90
2024-03-02T02:33:17.354Z,53.48
2024-03-02T02:34:17.239Z,53.84
2024-03-02T02:35:17.241Z,53.79
2024-03-02T02:36:17.278Z,53.88
2024-03-02T02:37:17.254Z,54.85
2024-03-02T02:38:17.232Z,54.04
2024-03-02T02:39:17.303Z,54.05
2024-03-02T02:40:17.238Z,54.15
2024-03-02T02:41:17.232Z,54.51
2024-03-02T02:42:17.302Z,53.44
2024-03-02T02:43:17.227Z,52.60
2024-03-02T02:44:17.224Z,51.85
2024-03-02T02:45:17.284Z,51.74
2024-03-02T02:46:17.237Z,52.79
2024-03-02T02:47:17.229Z,54.64
2024-03-02T02:48:17.280Z,51.47
2024-03-02T02:49:17.247Z,51.97
2024-03-02T02:50:17.250Z,52.69
2024-03-02T02:51:17.320Z,50.96
2024-03-02T02:52:17.367Z,50.70
2024-03-02T02:53:17.417Z,51.20
2024-03-02T02:54:17.481Z,52.69
2024-03-02T02:55:17.522Z,52.63
2024-03-02T02:56:17.517Z,52.19
2024-03-02T02:57:17.535Z,51.36
2024-03-02T02:58:17.508Z,53.42
2024-03-02T02:59:17.526Z,51.12
2024-03-02T03:00:18.583Z,50.72
2024-03-02T03:01:17.573Z,52.65
2024-03-02T03:02:17.506Z,52.68
2024-03-02T03:03:17.548Z,52.95
2024-03-02T03:04:17.512Z,53.13
2024-03-02T03:05:17.589Z,52.39
2024-03-02T03:06:17.576Z,53.16
2024-03-02T03:07:17.513Z,54.03
2024-03-02T03:08:17.516Z,51.98
2024-03-02T03:09:17.530Z,54.07
2024-03-02T03:10:17.521Z,52.21
2024-03-02T03:11:17.546Z,51.65
2024-03-02T03:12:17.559Z,52.26
2024-03-02T03:13:17.540Z,51.21
2024-03-02T03:14:17.556Z,50.80
2024-03-02T03:15:17.852Z,52.05
2024-03-02T03:16:17.552Z,52.99
2024-03-02T03:17:17.548Z,52.38
2024-03-02T03:18:17.653Z,52.41
2024-03-02T03:19:17.559Z,52.67
2024-03-02T03:20:17.546Z,52.25
2024-03-02T03:21:17.583Z,45.10
2024-03-02T03:22:17.557Z,38.03
2024-03-02T03:23:17.560Z,50.34
2024-03-02T03:24:17.583Z,49.55
2024-03-02T03:25:17.561Z,50.26
2024-03-02T03:26:17.558Z,50.00
2024-03-02T03:27:17.590Z,50.00
2024-03-02T03:28:17.577Z,50.00
2024-03-02T03:29:17.563Z,50.18
2024-03-02T03:30:17.631Z,49.19
2024-03-02T03:31:17.589Z,50.00
2024-03-02T03:32:17.628Z,50.07
2024-03-02T03:33:17.734Z,50.00
2024-03-02T03:34:17.759Z,50.13
2024-03-02T03:35:17.870Z,50.00
2024-03-02T03:36:17.894Z,49.87
2024-03-02T03:37:17.982Z,50.00
2024-03-02T03:38:18.008Z,50.00
2024-03-02T03:39:18.112Z,51.55
2024-03-02T03:40:18.147Z,48.87
2024-03-02T03:41:18.207Z,50.00
2024-03-02T03:42:18.307Z,50.61
2024-03-02T03:43:18.350Z,51.30
2024-03-02T03:44:18.423Z,50.00
2024-03-02T03:45:18.531Z,50.00
2024-03-02T03:46:18.437Z,50.00
2024-03-02T03:47:18.473Z,50.32
2024-03-02T03:48:18.509Z,51.12
2024-03-02T03:49:18.511Z,51.98
2024-03-02T03:50:18.522Z,50.99
2024-03-02T03:51:18.559Z,52.83
2024-03-02T03:52:18.560Z,50.73
2024-03-02T03:53:18.565Z,53.15
2024-03-02T03:54:18.690Z,49.50
2024-03-02T03:55:18.611Z,49.55
2024-03-02T03:56:18.615Z,45.89
2024-03-02T03:57:18.706Z,44.48
2024-03-02T03:58:20.052Z,41.49
2024-03-02T03:59:18.635Z,36.07
2024-03-02T04:00:18.689Z,50.89
2024-03-02T04:01:18.719Z,53.03
2024-03-02T04:02:18.667Z,52.63
2024-03-02T04:03:18.715Z,50.75
2024-03-02T04:04:18.670Z,53.56
2024-03-02T04:05:18.714Z,52.10
2024-03-02T04:06:18.755Z,50.64
2024-03-02T04:07:18.748Z,51.99
2024-03-02T04:08:18.725Z,50.00
2024-03-02T04:09:18.780Z,50.00
2024-03-02T04:10:18.761Z,53.00
2024-03-02T04:11:18.802Z,48.91
2024-03-02T04:12:18.820Z,47.52
2024-03-02T04:13:18.785Z,43.91
2024-03-02T04:14:18.794Z,43.88
2024-03-02T04:15:18.884Z,40.27
2024-03-02T04:16:18.824Z,51.40
2024-03-02T04:17:18.829Z,51.55
2024-03-02T04:18:18.871Z,50.46
2024-03-02T04:19:18.869Z,51.48
2024-03-02T04:20:18.892Z,51.53
2024-03-02T04:21:18.965Z,50.33
2024-03-02T04:22:24.991Z,48.66
2024-03-02T04:23:19.941Z,46.44
2024-03-02T04:24:18.942Z,46.95
2024-03-02T04:25:18.951Z,43.56
2024-03-02T04:26:18.965Z,43.26
2024-03-02T04:27:19.017Z,41.97
2024-03-02T04:28:18.973Z,51.44
2024-03-02T04:29:18.988Z,51.46
2024-03-02T04:30:19.043Z,50.82
2024-03-02T04:31:19.008Z,49.57
2024-03-02T04:32:19.025Z,48.78
2024-03-02T04:33:19.179Z,50.61
2024-03-02T04:34:19.040Z,51.12
2024-03-02T04:35:31.197Z,50.00
2024-03-02T04:36:31.266Z,50.00
2024-03-02T04:37:31.190Z,50.00
2024-03-02T04:38:31.173Z,50.00
2024-03-02T04:39:31.169Z,50.00
2024-03-02T04:40:31.162Z,50.00
2024-03-02T04:41:31.157Z,50.00
2024-03-02T04:42:31.193Z,50.00
2024-03-02T04:43:31.153Z,50.00
2024-03-02T04:44:31.128Z,50.00
2024-03-02T04:45:31.149Z,52.13
2024-03-02T04:46:31.110Z,50.00
2024-03-02T04:47:31.122Z,52.26
2024-03-02T04:48:31.315Z,50.41
2024-03-02T04:49:31.320Z,51.70
2024-03-02T04:50:31.272Z,51.86
2024-03-02T04:51:31.317Z,49.96
2024-03-02T04:52:31.360Z,53.26
2024-03-02T04:53:31.406Z,53.79
2024-03-02T04:54:31.448Z,54.38
2024-03-02T04:55:31.473Z,53.35
2024-03-02T04:56:31.499Z,53.78
2024-03-02T04:57:31.585Z,52.60
2024-03-02T04:58:31.572Z,51.63
2024-03-02T04:59:31.617Z,52.87
2024-03-02T05:00:31.673Z,51.42
2024-03-02T05:01:31.719Z,53.85
2024-03-02T05:02:31.724Z,50.00
2024-03-02T05:03:31.828Z,50.87
2024-03-02T05:04:31.788Z,53.24
2024-03-02T05:05:31.849Z,50.10
2024-03-02T05:06:31.891Z,52.46
2024-03-02T05:07:31.876Z,52.89
2024-03-02T05:08:31.939Z,53.50
2024-03-02T05:09:31.975Z,51.21
2024-03-02T05:10:31.955Z,50.42
2024-03-02T05:11:32.078Z,50.00
2024-03-02T05:12:32.050Z,54.03
2024-03-02T05:13:32.000Z,55.10
2024-03-02T05:14:32.045Z,52.96
2024-03-02T05:15:32.104Z,52.30
2024-03-02T05:16:32.060Z,55.09
2024-03-02T05:17:32.150Z,52.59
2024-03-02T05:18:32.139Z,53.09
2024-03-02T05:19:32.095Z,53.56
2024-03-02T05:20:32.087Z,52.85
2024-03-02T05:21:32.143Z,51.13
2024-03-02T05:22:32.123Z,51.31
2024-03-02T05:23:32.121Z,53.03
2024-03-02T05:24:32.210Z,52.86
2024-03-02T05:25:32.204Z,53.47
2024-03-02T05:26:32.228Z,51.99
2024-03-02T05:27:32.292Z,51.14
2024-03-02T05:28:32.237Z,50.18
2024-03-02T05:29:32.236Z,50.00
2024-03-02T05:30:32.300Z,52.94
2024-03-02T05:31:32.255Z,54.51
2024-03-02T05:32:32.239Z,51.87
2024-03-02T05:33:32.326Z,51.52
2024-03-02T05:34:32.251Z,54.08
2024-03-02T05:35:32.212Z,54.36
2024-03-02T05:36:32.239Z,52.81
2024-03-02T05:37:32.224Z,51.42
2024-03-02T05:38:32.211Z,53.13
2024-03-02T05:39:32.237Z,52.19
2024-03-02T05:40:32.194Z,51.60
2024-03-02T05:41:32.182Z,52.76
2024-03-02T05:42:32.238Z,52.07
2024-03-02T05:43:32.176Z,54.35
2024-03-02T05:44:32.178Z,52.57
2024-03-02T05:45:32.176Z,54.82
2024-03-02T05:46:32.173Z,56.19
2024-03-02T05:47:32.176Z,56.83
2024-03-02T05:48:32.196Z,56.30
2024-03-02T05:49:32.168Z,59.16
2024-03-02T05:50:32.180Z,55.89
2024-03-02T05:51:32.232Z,53.78
2024-03-02T05:52:32.179Z,55.35
2024-03-02T05:53:32.168Z,58.24
2024-03-02T05:54:32.207Z,55.42
2024-03-02T05:55:32.169Z,59.67
2024-03-02T05:56:32.172Z,59.69
2024-03-02T05:57:32.172Z,57.83
2024-03-02T05:58:32.150Z,56.85
2024-03-02T05:59:32.150Z,56.49
2024-03-02T06:00:32.245Z,58.11
2024-03-02T06:01:32.224Z,58.18
2024-03-02T06:02:32.115Z,56.52
2024-03-02T06:03:32.106Z,57.39
2024-03-02T06:04:32.088Z,58.28
2024-03-02T06:05:32.086Z,59.29
2024-03-02T06:06:32.140Z,58.85
2024-03-02T06:07:32.149Z,59.09
2024-03-02T06:08:32.061Z,59.36
2024-03-02T06:09:32.098Z,60.03
2024-03-02T06:10:32.069Z,59.79
2024-03-02T06:11:32.086Z,62.08
2024-03-02T06:12:32.063Z,61.96
2024-03-02T06:13:32.039Z,66.53
2024-03-02T06:14:32.014Z,69.26
2024-03-02T06:15:32.045Z,64.35
2024-03-02T06:16:31.994Z,68.30
2024-03-02T06:17:32.071Z,70.52
2024-03-02T06:18:32.012Z,71.19
2024-03-02T06:19:31.954Z,70.32
2024-03-02T06:20:34.477Z,71.62
2024-03-02T06:21:31.988Z,71.00
2024-03-02T06:22:31.921Z,70.32
2024-03-02T06:23:31.895Z,71.86
2024-03-02T06:24:31.924Z,69.56
2024-03-02T06:25:31.891Z,70.71
2024-03-02T06:26:31.887Z,67.18
2024-03-02T06:27:31.928Z,63.81
2024-03-02T06:28:31.847Z,63.13
2024-03-02T06:29:31.831Z,59.42
2024-03-02T06:30:31.838Z,59.91
2024-03-02T06:31:31.812Z,60.15
2024-03-02T06:32:31.827Z,59.21
2024-03-02T06:33:31.812Z,60.44
2024-03-02T06:34:31.781Z,58.65
2024-03-02T06:35:31.775Z,58.53
2024-03-02T06:36:31.862Z,56.41
2024-03-02T06:37:31.756Z,55.22
2024-03-02T06:38:31.745Z,54.23
2024-03-02T06:39:31.765Z,53.89
2024-03-02T06:40:31.742Z,52.83
2024-03-02T06:41:31.725Z,51.68
2024-03-02T06:42:31.807Z,53.18
2024-03-02T06:43:31.699Z,52.20
2024-03-02T06:44:31.694Z,54.81
2024-03-02T06:45:31.781Z,55.41
2024-03-02T06:46:31.685Z,54.15
2024-03-02T06:47:31.681Z,57.68
2024-03-02T06:48:31.799Z,61.08
2024-03-02T06:49:31.670Z,62.41
2024-03-02T06:50:31.662Z,64.21
2024-03-02T06:51:31.657Z,64.77
2024-03-02T06:52:31.637Z,63.37
2024-03-02T06:53:31.592Z,64.97
2024-03-02T06:54:31.609Z,65.03
2024-03-02T06:55:31.592Z,65.58
2024-03-02T06:56:31.583Z,67.59
2024-03-02T06:57:31.592Z,65.13
2024-03-02T06:58:31.567Z,65.87
2024-03-02T06:59:31.581Z,67.46
2024-03-02T07:00:31.607Z,68.85
2024-03-02T07:01:31.529Z,71.45
2024-03-02T07:02:31.507Z,75.79
2024-03-02T07:03:31.521Z,74.68
2024-03-02T07:04:31.500Z,75.66
2024-03-02T07:05:31.473Z,75.94
2024-03-02T07:06:31.526Z,77.54
2024-03-02T07:07:31.442Z,78.91
2024-03-02T07:08:31.436Z,80.40
2024-03-02T07:09:31.440Z,82.97
2024-03-02T07:10:31.403Z,86.32
2024-03-02T07:11:31.463Z,85.57
2024-03-02T07:12:31.365Z,92.32
2024-03-02T07:13:31.377Z,92.13
2024-03-02T07:14:31.408Z,93.32
2024-03-02T07:15:31.463Z,92.99
2024-03-02T07:16:31.446Z,95.68
2024-03-02T07:17:31.458Z,97.27
2024-03-02T07:18:31.498Z,98.78
2024-03-02T07:19:31.555Z,101.25
2024-03-02T07:20:31.531Z,103.41
2024-03-02T07:21:31.579Z,105.47
2024-03-02T07:22:31.569Z,109.57
2024-03-02T07:23:31.591Z,108.42
2024-03-02T07:24:31.689Z,107.68
2024-03-02T07:27:31.615Z,104.89
2024-03-02T07:28:31.587Z,103.71
2024-03-02T07:29:31.560Z,105.10
2024-03-02T07:30:34.034Z,105.21
2024-03-02T07:31:31.549Z,105.94
2024-03-02T07:32:31.585Z,106.78
2024-03-02T07:33:31.546Z,107.30
2024-03-02T07:34:31.515Z,104.80
2024-03-02T07:35:31.514Z,103.70
2024-03-02T07:36:31.499Z,101.34
2024-03-02T07:37:31.467Z,102.07
2024-03-02T07:38:31.464Z,102.45
2024-03-02T07:39:31.455Z,99.55
2024-03-02T07:40:31.431Z,100.20
2024-03-02T07:41:31.424Z,97.02
2024-03-02T07:42:31.416Z,92.11
2024-03-02T07:43:31.389Z,87.73
2024-03-02T07:44:31.391Z,81.90
2024-03-02T07:45:31.378Z,75.81
2024-03-02T07:46:31.346Z,70.22
2024-03-02T07:47:31.357Z,69.81
2024-03-02T07:48:31.320Z,69.66
2024-03-02T07:49:31.309Z,70.93
2024-03-02T07:50:31.265Z,71.20
2024-03-02T07:51:31.274Z,68.91
2024-03-02T07:52:31.232Z,66.27
2024-03-02T07:53:31.219Z,64.44
2024-03-02T07:54:31.245Z,61.14
2024-03-02T07:55:31.200Z,60.55
2024-03-02T07:56:31.172Z,60.63
2024-03-02T07:57:31.180Z,59.78
2024-03-02T07:58:31.133Z,56.97
2024-03-02T07:59:31.103Z,55.86
2024-03-02T08:00:31.160Z,55.16
2024-03-02T08:01:31.144Z,54.32
2024-03-02T08:02:31.066Z,51.38
2024-03-02T08:03:31.073Z,51.38
2024-03-02T08:04:31.026Z,47.23
2024-03-02T08:05:31.004Z,48.34
2024-03-02T08:06:31.009Z,47.98
2024-03-02T08:07:30.979Z,48.49
2024-03-02T08:08:30.952Z,49.62
2024-03-02T08:09:30.969Z,47.87
2024-03-02T08:10:30.923Z,46.68
2024-03-02T08:11:30.918Z,48.63
2024-03-02T08:12:30.884Z,46.30
2024-03-02T08:13:30.866Z,45.55
2024-03-02T08:14:30.839Z,46.88
2024-03-02T08:15:30.851Z,44.65
2024-03-02T08:16:30.793Z,52.42
2024-03-02T08:17:30.803Z,52.08
2024-03-02T08:18:30.792Z,53.04
2024-03-02T08:19:30.732Z,53.39
2024-03-02T08:20:30.725Z,53.09
2024-03-02T08:21:30.688Z,50.47
2024-03-02T08:22:30.679Z,52.28
2024-03-02T08:23:30.636Z,53.25
2024-03-02T08:24:30.673Z,51.62
2024-03-02T08:25:30.623Z,51.64
2024-03-02T08:26:30.602Z,51.95
2024-03-02T08:27:30.598Z,52.77
2024-03-02T08:28:30.555Z,53.44
2024-03-02T08:29:30.538Z,54.45
2024-03-02T08:30:30.539Z,55.62
2024-03-02T08:31:30.500Z,56.19
2024-03-02T08:32:30.492Z,55.17
2024-03-02T08:33:30.483Z,56.62
2024-03-02T08:34:30.427Z,57.93
2024-03-02T08:35:30.421Z,57.40
2024-03-02T08:36:30.415Z,59.66
2024-03-02T08:37:30.365Z,59.19
2024-03-02T08:38:30.349Z,60.34
2024-03-02T08:39:30.387Z,57.44
2024-03-02T08:40:30.304Z,59.89
2024-03-02T08:41:30.289Z,59.02
2024-03-02T08:42:30.308Z,57.97
2024-03-02T08:43:30.283Z,59.40
2024-03-02T08:44:30.292Z,61.42
2024-03-02T08:45:30.350Z,60.08
2024-03-02T08:46:30.321Z,62.11
2024-03-02T08:47:30.308Z,60.05
2024-03-02T08:48:30.370Z,61.53
2024-03-02T08:49:30.291Z,60.44
2024-03-02T08:50:30.344Z,61.03
2024-03-02T08:51:30.322Z,62.36
2024-03-02T08:52:30.310Z,61.95
2024-03-02T08:53:30.312Z,61.63
2024-03-02T08:54:30.344Z,61.81
2024-03-02T08:55:30.361Z,62.05
2024-03-02T08:56:30.328Z,59.59
2024-03-02T08:57:30.425Z,58.42
2024-03-02T08:58:30.353Z,57.87
2024-03-02T08:59:30.381Z,57.19
2024-03-02T09:00:30.435Z,58.21
2024-03-02T09:01:30.466Z,57.07
2024-03-02T09:02:30.397Z,54.82
2024-03-02T09:03:30.473Z,54.31
2024-03-02T09:04:33.688Z,52.66
2024-03-02T09:05:30.483Z,52.68
2024-03-02T09:06:30.379Z,51.63
2024-03-02T09:07:30.336Z,50.60
2024-03-02T09:08:30.297Z,47.26
2024-03-02T09:09:30.303Z,47.68
2024-03-02T09:10:30.306Z,46.36
2024-03-02T09:11:30.257Z,51.54
2024-03-02T09:12:30.241Z,51.20
2024-03-02T09:13:30.197Z,51.63
2024-03-02T09:14:30.183Z,52.29
2024-03-02T09:15:30.438Z,52.35
2024-03-02T09:16:30.146Z,52.89
2024-03-02T09:17:30.113Z,55.39
2024-03-02T09:18:30.167Z,59.27
2024-03-02T09:19:30.066Z,69.98
2024-03-02T09:20:30.059Z,75.70
2024-03-02T09:21:30.051Z,83.37
2024-03-02T09:22:29.979Z,87.92
2024-03-02T09:23:29.949Z,97.79
2024-03-02T09:24:29.943Z,107.38
2024-03-02T09:25:29.906Z,117.95
2024-03-02T09:26:29.892Z,124.89
2024-03-02T09:27:29.881Z,131.77
2024-03-02T09:28:29.840Z,138.82
2024-03-02T09:29:29.864Z,146.69
2024-03-02T09:30:29.936Z,152.43
2024-03-02T09:31:29.963Z,156.67
2024-03-02T09:32:30.054Z,162.48
2024-03-02T09:33:30.130Z,169.55
2024-03-02T09:34:30.104Z,176.07
2024-03-02T09:35:30.111Z,182.61
2024-03-02T09:36:30.156Z,185.67
2024-03-02T09:37:30.160Z,190.06
2024-03-02T09:38:30.193Z,192.84
2024-03-02T09:39:30.209Z,197.86
2024-03-02T09:40:30.229Z,198.42
2024-03-02T09:41:30.258Z,198.79
2024-03-02T09:42:30.304Z,199.50
2024-03-02T09:43:30.296Z,199.82
2024-03-02T09:44:30.324Z,200.00
2024-03-02T09:45:30.359Z,200.00
2024-03-02T09:46:30.341Z,199.25
2024-03-02T09:47:30.381Z,199.48
2024-03-02T09:48:30.386Z,199.46
2024-03-02T09:49:30.369Z,198.65
2024-03-02T09:50:30.368Z,199.56
2024-03-02T09:51:30.383Z,200.00
2024-03-02T09:52:30.376Z,199.24
2024-03-02T09:53:30.364Z,200.00
2024-03-02T09:54:30.399Z,200.00
2024-03-02T09:55:30.352Z,197.07
2024-03-02T09:56:30.365Z,199.30
2024-03-02T09:57:30.351Z,199.60
2024-03-02T09:58:30.327Z,195.98
2024-03-02T09:59:30.298Z,200.00
2024-03-02T10:00:30.340Z,196.23
2024-03-02T10:01:30.340Z,196.69
2024-03-02T10:02:30.226Z,195.62
2024-03-02T10:03:30.220Z,195.83
2024-03-02T10:04:30.160Z,196.37
2024-03-02T10:05:30.264Z,197.89
2024-03-02T10:06:30.160Z,200.41
2024-03-02T10:07:30.047Z,203.75
2024-03-02T10:08:30.007Z,195.86
2024-03-02T10:09:30.039Z,197.12
2024-03-02T10:10:29.920Z,197.76
2024-03-02T10:11:29.941Z,197.53
2024-03-02T10:12:29.883Z,197.24
2024-03-02T10:13:29.799Z,195.23
2024-03-02T10:14:29.763Z,195.41
2024-03-02T10:15:29.743Z,195.41
2024-03-02T10:16:29.717Z,195.44
2024-03-02T10:17:29.671Z,196.54
2024-03-02T10:18:29.751Z,195.50
2024-03-02T10:19:29.560Z,196.75
2024-03-02T10:20:29.523Z,200.12
2024-03-02T10:21:29.519Z,202.75
2024-03-02T10:22:29.457Z,210.43
2024-03-02T10:23:29.408Z,198.98
2024-03-02T10:24:29.381Z,200.00
2024-03-02T10:25:37.383Z,197.66
2024-03-02T10:26:30.287Z,195.61
2024-03-02T10:27:29.292Z,195.79
2024-03-02T10:28:29.288Z,196.87
2024-03-02T10:29:29.185Z,197.47
2024-03-02T10:30:29.210Z,200.67
2024-03-02T10:31:29.137Z,200.00
2024-03-02T10:32:29.155Z,195.85
2024-03-02T10:33:29.099Z,194.82
2024-03-02T10:34:29.024Z,197.42
2024-03-02T10:35:28.986Z,199.63
2024-03-02T10:36:28.984Z,198.68
2024-03-02T10:37:28.916Z,200.00
2024-03-02T10:38:28.892Z,195.09
2024-03-02T10:39:28.863Z,199.65
2024-03-02T10:40:28.822Z,198.27
2024-03-02T10:41:28.781Z,198.67
2024-03-02T10:42:28.747Z,197.34
2024-03-02T10:43:28.705Z,197.41
2024-03-02T10:44:28.680Z,197.68
2024-03-02T10:45:28.692Z,198.41
2024-03-02T10:46:28.605Z,198.43
2024-03-02T10:47:28.574Z,200.88
2024-03-02T10:48:28.573Z,199.77
2024-03-02T10:49:28.501Z,196.63
2024-03-02T10:50:28.469Z,195.85
2024-03-02T10:51:28.443Z,196.64
2024-03-02T10:52:28.407Z,197.05
2024-03-02T10:53:28.365Z,199.27
2024-03-02T10:54:28.442Z,195.54
2024-03-02T10:55:28.521Z,196.83
2024-03-02T10:56:28.317Z,193.96
2024-03-02T10:57:28.299Z,199.33
2024-03-02T10:58:28.240Z,196.71
2024-03-02T10:59:28.131Z,199.70
2024-03-02T11:00:28.252Z,198.88
2024-03-02T11:01:28.188Z,198.88
2024-03-02T11:02:28.015Z,198.67
2024-03-02T11:03:28.006Z,197.29
2024-03-02T11:04:27.976Z,197.74
2024-03-02T11:05:27.919Z,198.65
2024-03-02T11:06:27.967Z,195.04
2024-03-02T11:07:27.872Z,198.30
2024-03-02T11:08:27.828Z,198.12
2024-03-02T11:09:27.815Z,194.25
2024-03-02T11:10:27.757Z,194.34
2024-03-02T11:11:27.856Z,194.56
2024-03-02T11:12:27.700Z,195.32
2024-03-02T11:13:27.657Z,196.84
2024-03-02T11:14:27.619Z,196.52
2024-03-02T11:15:27.624Z,197.11
2024-03-02T11:16:27.542Z,197.31
2024-03-02T11:17:27.524Z,196.49
2024-03-02T11:18:27.544Z,196.76
2024-03-02T11:19:27.476Z,197.46
2024-03-02T11:20:27.470Z,197.13
2024-03-02T11:21:27.412Z,196.21
2024-03-02T11:22:27.386Z,198.41
2024-03-02T11:23:27.286Z,197.47
2024-03-02T11:24:27.261Z,196.25
2024-03-02T11:25:27.220Z,195.75
2024-03-02T11:26:27.179Z,197.19
2024-03-02T11:27:27.164Z,195.82
2024-03-02T11:28:27.122Z,197.04
2024-03-02T11:29:27.154Z,195.63
2024-03-02T11:30:27.161Z,198.22
2024-03-02T11:31:27.148Z,198.00
2024-03-02T11:32:27.171Z,198.50
2024-03-02T11:33:27.238Z,195.34
2024-03-02T11:34:27.170Z,192.71
2024-03-02T11:35:27.265Z,195.12
2024-03-02T11:36:27.194Z,198.27
2024-03-02T11:37:27.182Z,197.23
2024-03-02T11:38:27.236Z,198.74
2024-03-02T11:39:27.249Z,197.54
2024-03-02T11:40:27.267Z,196.87
2024-03-02T11:41:27.318Z,195.34
2024-03-02T11:42:27.322Z,194.32
2024-03-02T11:43:27.324Z,195.85
2024-03-02T11:44:27.336Z,193.97
2024-03-02T11:45:27.372Z,195.32
2024-03-02T11:46:27.358Z,194.41
2024-03-02T11:47:27.393Z,196.31
2024-03-02T11:48:27.367Z,194.77
2024-03-02T11:49:27.371Z,194.29
2024-03-02T11:50:27.373Z,197.10
2024-03-02T11:51:27.444Z,195.16
2024-03-02T11:52:27.458Z,196.27
2024-03-02T11:53:27.509Z,196.50
2024-03-02T11:54:27.537Z,196.55
2024-03-02T11:55:27.532Z,196.93
2024-03-02T11:56:27.549Z,196.80
2024-03-02T11:57:27.650Z,197.06
2024-03-02T11:58:27.600Z,197.79
2024-03-02T11:59:27.627Z,197.48
2024-03-02T12:00:27.673Z,198.34
2024-03-02T12:01:27.885Z,197.53
2024-03-02T12:02:27.648Z,198.50
2024-03-02T12:03:27.892Z,198.52
2024-03-02T12:04:27.582Z,198.11
2024-03-02T12:05:27.540Z,197.80
2024-03-02T12:06:27.524Z,197.93
2024-03-02T12:07:27.449Z,197.98
2024-03-02T12:08:27.410Z,197.43
2024-03-02T12:09:27.392Z,198.14
2024-03-02T12:10:27.326Z,197.47
2024-03-02T12:11:27.393Z,197.50
2024-03-02T12:12:27.277Z,197.48
2024-03-02T12:13:27.204Z,195.98
2024-03-02T12:14:27.154Z,195.60
2024-03-02T12:15:27.168Z,196.51
2024-03-02T12:16:27.142Z,196.93
2024-03-02T12:17:27.039Z,196.64
2024-03-02T12:18:27.472Z,196.02
2024-03-02T12:19:26.963Z,195.85
2024-03-02T12:20:26.919Z,195.52
2024-03-02T12:21:26.922Z,196.84
2024-03-02T12:22:26.824Z,196.38
2024-03-02T12:23:26.894Z,195.10
2024-03-02T12:24:26.734Z,196.86
2024-03-02T12:25:26.687Z,196.84
2024-03-02T12:26:26.652Z,196.07
2024-03-02T12:27:26.595Z,197.23
2024-03-02T12:28:26.541Z,197.37
2024-03-02T12:29:26.512Z,197.29
2024-03-02T12:30:26.480Z,197.80
2024-03-02T12:31:26.396Z,197.73
2024-03-02T12:32:26.346Z,197.18
2024-03-02T12:33:26.505Z,198.48
2024-03-02T12:34:26.367Z,197.38
2024-03-02T12:35:26.250Z,197.15
2024-03-02T12:36:26.259Z,197.84
2024-03-02T12:37:26.148Z,200.00
2024-03-02T12:38:26.082Z,198.14
2024-03-02T12:39:26.072Z,199.94
2024-03-02T12:40:25.985Z,197.93
2024-03-02T12:41:27.023Z,200.00
2024-03-02T12:42:25.936Z,198.12
2024-03-02T12:43:25.873Z,198.11
2024-03-02T12:44:25.856Z,198.78
2024-03-02T12:45:26.230Z,198.54
2024-03-02T12:46:25.817Z,197.90
2024-03-02T12:47:25.836Z,198.50